sensor_id;sensor_type;location;lat;lon;timestamp;pressure;altitude;pressure_sealevel;temperature;humidity
69879;BME280;57161;43.136;24.706;2024-01-30T00:01:13;101661.78;;;1.97;73.56
69879;BME280;57161;43.136;24.706;2024-01-30T00:03:38;101663.63;;;2.04;73.68
69879;BME280;57161;43.136;24.706;2024-01-30T00:06:04;101666.72;;;2.06;73.15
69879;BME280;57161;43.136;24.706;2024-01-30T00:08:30;101669.47;;;2.06;73.24
69879;BME280;57161;43.136;24.706;2024-01-30T00:10:55;101672.41;;;1.99;73.60
69879;BME280;57161;43.136;24.706;2024-01-30T00:13:20;101663.78;;;1.97;73.76
69879;BME280;57161;43.136;24.706;2024-01-30T00:15:46;101664.97;;;1.96;73.66
69879;BME280;57161;43.136;24.706;2024-01-30T00:18:11;101638.06;;;1.64;73.81
69879;BME280;57161;43.136;24.706;2024-01-30T00:20:37;101666.38;;;2.04;74.20
69879;BME280;57161;43.136;24.706;2024-01-30T00:23:03;101669.28;;;2.17;73.72
69879;BME280;57161;43.136;24.706;2024-01-30T00:25:28;101662.34;;;2.08;73.42
69879;BME280;57161;43.136;24.706;2024-01-30T00:27:54;101665.75;;;1.96;73.93
69879;BME280;57161;43.136;24.706;2024-01-30T00:30:20;101670.34;;;2.03;74.09
69879;BME280;57161;43.136;24.706;2024-01-30T00:32:46;101670.50;;;1.96;74.38
69879;BME280;57161;43.136;24.706;2024-01-30T00:35:11;101657.34;;;1.84;74.41
69879;BME280;57161;43.136;24.706;2024-01-30T00:37:37;101662.44;;;1.85;74.95
69879;BME280;57161;43.136;24.706;2024-01-30T00:40:03;101594.56;;;1.32;74.88
69879;BME280;57161;43.136;24.706;2024-01-30T00:42:29;101635.59;;;1.46;75.76
69879;BME280;57161;43.136;24.706;2024-01-30T00:44:54;101628.00;;;1.54;75.86
69879;BME280;57161;43.136;24.706;2024-01-30T00:47:20;101616.81;;;1.41;75.58
69879;BME280;57161;43.136;24.706;2024-01-30T00:49:46;101667.94;;;1.65;75.96
69879;BME280;57161;43.136;24.706;2024-01-30T00:52:11;101627.56;;;1.35;75.68
69879;BME280;57161;43.136;24.706;2024-01-30T00:54:37;101647.13;;;1.41;76.43
69879;BME280;57161;43.136;24.706;2024-01-30T00:57:03;101666.81;;;1.63;75.59
69879;BME280;57161;43.136;24.706;2024-01-30T00:59:28;101655.91;;;1.56;75.45
69879;BME280;57161;43.136;24.706;2024-01-30T01:01:54;101650.91;;;1.50;75.65
69879;BME280;57161;43.136;24.706;2024-01-30T01:04:19;101665.47;;;1.71;74.87
69879;BME280;57161;43.136;24.706;2024-01-30T01:06:47;101665.13;;;1.69;74.79
69879;BME280;57161;43.136;24.706;2024-01-30T01:09:12;101633.66;;;1.46;74.73
69879;BME280;57161;43.136;24.706;2024-01-30T01:11:39;101663.84;;;1.73;74.60
69879;BME280;57161;43.136;24.706;2024-01-30T01:14:04;101630.59;;;1.41;74.75
69879;BME280;57161;43.136;24.706;2024-01-30T01:16:30;101656.97;;;1.62;74.81
69879;BME280;57161;43.136;24.706;2024-01-30T01:18:56;101660.13;;;1.60;74.95
69879;BME280;57161;43.136;24.706;2024-01-30T01:21:22;101635.13;;;1.51;74.97
69879;BME280;57161;43.136;24.706;2024-01-30T01:23:48;101645.31;;;1.54;75.00
69879;BME280;57161;43.136;24.706;2024-01-30T01:26:13;101659.78;;;1.58;75.71
69879;BME280;57161;43.136;24.706;2024-01-30T01:28:40;101642.75;;;1.43;75.40
69879;BME280;57161;43.136;24.706;2024-01-30T01:31:06;101637.72;;;1.38;75.49
69879;BME280;57161;43.136;24.706;2024-01-30T01:33:32;101645.16;;;1.41;75.38
69879;BME280;57161;43.136;24.706;2024-01-30T01:35:59;101646.00;;;1.38;75.48
69879;BME280;57161;43.136;24.706;2024-01-30T01:38:25;101633.13;;;1.32;75.61
69879;BME280;57161;43.136;24.706;2024-01-30T01:40:50;101660.41;;;1.46;76.00
69879;BME280;57161;43.136;24.706;2024-01-30T01:43:16;101650.72;;;1.38;76.49
69879;BME280;57161;43.136;24.706;2024-01-30T01:45:42;101653.56;;;1.34;76.45
69879;BME280;57161;43.136;24.706;2024-01-30T01:48:08;101651.31;;;1.26;76.84
69879;BME280;57161;43.136;24.706;2024-01-30T01:50:35;101639.09;;;1.27;76.67
69879;BME280;57161;43.136;24.706;2024-01-30T01:53:01;101618.25;;;1.06;76.55
69879;BME280;57161;43.136;24.706;2024-01-30T01:55:28;101637.91;;;1.28;76.61
69879;BME280;57161;43.136;24.706;2024-01-30T01:57:54;101648.69;;;1.42;75.80
69879;BME280;57161;43.136;24.706;2024-01-30T02:00:20;101639.97;;;1.24;75.95
69879;BME280;57161;43.136;24.706;2024-01-30T02:02:46;101630.13;;;1.23;76.29
69879;BME280;57161;43.136;24.706;2024-01-30T02:05:12;101632.84;;;1.46;76.12
69879;BME280;57161;43.136;24.706;2024-01-30T02:07:37;101627.91;;;1.37;75.82
69879;BME280;57161;43.136;24.706;2024-01-30T02:10:03;101621.13;;;1.42;75.49
69879;BME280;57161;43.136;24.706;2024-01-30T02:12:29;101636.09;;;1.41;75.65
69879;BME280;57161;43.136;24.706;2024-01-30T02:14:55;101628.97;;;1.43;75.80
69879;BME280;57161;43.136;24.706;2024-01-30T02:17:21;101638.34;;;1.46;75.50
69879;BME280;57161;43.136;24.706;2024-01-30T02:19:48;101646.72;;;1.62;74.89
69879;BME280;57161;43.136;24.706;2024-01-30T02:22:14;101626.66;;;1.62;75.05
69879;BME280;57161;43.136;24.706;2024-01-30T02:24:40;101635.50;;;1.73;74.63
69879;BME280;57161;43.136;24.706;2024-01-30T02:27:05;101645.88;;;1.65;74.48
69879;BME280;57161;43.136;24.706;2024-01-30T02:29:31;101638.41;;;1.66;74.39
69879;BME280;57161;43.136;24.706;2024-01-30T02:31:56;101637.91;;;1.71;74.50
69879;BME280;57161;43.136;24.706;2024-01-30T02:34:23;101649.63;;;1.75;74.49
69879;BME280;57161;43.136;24.706;2024-01-30T02:36:49;101613.56;;;1.46;74.60
69879;BME280;57161;43.136;24.706;2024-01-30T02:39:14;101659.16;;;1.70;74.34
69879;BME280;57161;43.136;24.706;2024-01-30T02:41:40;101661.56;;;1.68;74.55
69879;BME280;57161;43.136;24.706;2024-01-30T02:44:05;101639.88;;;1.50;74.53
69879;BME280;57161;43.136;24.706;2024-01-30T02:46:31;101667.09;;;1.68;74.69
69879;BME280;57161;43.136;24.706;2024-01-30T02:48:56;101648.28;;;1.63;74.59
69879;BME280;57161;43.136;24.706;2024-01-30T02:51:22;101654.78;;;1.73;74.01
69879;BME280;57161;43.136;24.706;2024-01-30T02:53:47;101643.50;;;1.67;74.12
69879;BME280;57161;43.136;24.706;2024-01-30T02:56:13;101638.94;;;1.77;73.60
69879;BME280;57161;43.136;24.706;2024-01-30T02:58:39;101647.94;;;1.81;73.58
69879;BME280;57161;43.136;24.706;2024-01-30T03:01:06;101644.97;;;1.72;73.59
69879;BME280;57161;43.136;24.706;2024-01-30T03:03:31;101633.00;;;1.59;73.79
69879;BME280;57161;43.136;24.706;2024-01-30T03:05:57;101633.59;;;1.50;74.21
69879;BME280;57161;43.136;24.706;2024-01-30T03:08:22;101643.25;;;1.58;74.55
69879;BME280;57161;43.136;24.706;2024-01-30T03:10:48;101642.13;;;1.56;74.32
69879;BME280;57161;43.136;24.706;2024-01-30T03:13:14;101653.06;;;1.59;74.56
69879;BME280;57161;43.136;24.706;2024-01-30T03:15:39;101645.59;;;1.60;75.04
69879;BME280;57161;43.136;24.706;2024-01-30T03:18:05;101629.00;;;1.63;74.91
69879;BME280;57161;43.136;24.706;2024-01-30T03:20:30;101637.97;;;1.67;75.10
69879;BME280;57161;43.136;24.706;2024-01-30T03:22:56;101637.97;;;1.67;74.88
69879;BME280;57161;43.136;24.706;2024-01-30T03:25:22;101622.91;;;1.52;75.39
69879;BME280;57161;43.136;24.706;2024-01-30T03:27:48;101636.41;;;1.66;75.25
69879;BME280;57161;43.136;24.706;2024-01-30T03:30:14;101619.97;;;1.63;74.48
69879;BME280;57161;43.136;24.706;2024-01-30T03:32:39;101604.97;;;1.64;74.55
69879;BME280;57161;43.136;24.706;2024-01-30T03:35:05;101632.97;;;1.82;74.34
69879;BME280;57161;43.136;24.706;2024-01-30T03:37:31;101599.25;;;1.55;74.43
69879;BME280;57161;43.136;24.706;2024-01-30T03:39:56;101626.59;;;1.65;74.99
69879;BME280;57161;43.136;24.706;2024-01-30T03:42:22;101624.97;;;1.68;74.77
69879;BME280;57161;43.136;24.706;2024-01-30T03:44:48;101627.78;;;1.84;74.17
69879;BME280;57161;43.136;24.706;2024-01-30T03:47:13;101629.28;;;1.69;74.61
69879;BME280;57161;43.136;24.706;2024-01-30T03:49:40;101632.88;;;1.66;74.92
69879;BME280;57161;43.136;24.706;2024-01-30T03:52:05;101631.69;;;1.67;75.22
69879;BME280;57161;43.136;24.706;2024-01-30T03:54:31;101616.63;;;1.52;75.25
69879;BME280;57161;43.136;24.706;2024-01-30T03:56:56;101599.09;;;1.42;75.03
69879;BME280;57161;43.136;24.706;2024-01-30T03:59:22;101631.59;;;1.70;74.54
69879;BME280;57161;43.136;24.706;2024-01-30T04:01:50;101618.81;;;1.60;74.67
69879;BME280;57161;43.136;24.706;2024-01-30T04:04:17;101634.50;;;1.63;74.89
69879;BME280;57161;43.136;24.706;2024-01-30T04:06:43;101640.81;;;1.64;74.83
69879;BME280;57161;43.136;24.706;2024-01-30T04:09:09;101626.88;;;1.51;74.81
69879;BME280;57161;43.136;24.706;2024-01-30T04:11:35;101640.91;;;1.57;74.96
69879;BME280;57161;43.136;24.706;2024-01-30T04:14:00;101616.31;;;1.46;75.21
69879;BME280;57161;43.136;24.706;2024-01-30T04:16:26;101640.41;;;1.62;75.32
69879;BME280;57161;43.136;24.706;2024-01-30T04:18:52;101643.69;;;1.57;75.64
69879;BME280;57161;43.136;24.706;2024-01-30T04:21:17;101621.00;;;1.49;75.71
69879;BME280;57161;43.136;24.706;2024-01-30T04:23:43;101643.56;;;1.64;75.56
69879;BME280;57161;43.136;24.706;2024-01-30T04:26:08;101621.00;;;1.49;75.26
69879;BME280;57161;43.136;24.706;2024-01-30T04:28:34;101645.03;;;1.68;75.15
69879;BME280;57161;43.136;24.706;2024-01-30T04:30:59;101644.19;;;1.71;75.11
69879;BME280;57161;43.136;24.706;2024-01-30T04:33:25;101642.28;;;1.68;75.05
69879;BME280;57161;43.136;24.706;2024-01-30T04:35:50;101606.88;;;1.47;75.05
69879;BME280;57161;43.136;24.706;2024-01-30T04:38:17;101639.44;;;1.52;75.54
69879;BME280;57161;43.136;24.706;2024-01-30T04:40:42;101608.78;;;1.30;75.81
69879;BME280;57161;43.136;24.706;2024-01-30T04:43:08;101632.91;;;1.42;75.96
69879;BME280;57161;43.136;24.706;2024-01-30T04:45:33;101642.38;;;1.41;75.99
69879;BME280;57161;43.136;24.706;2024-01-30T04:47:59;101643.94;;;1.42;76.41
69879;BME280;57161;43.136;24.706;2024-01-30T04:50:24;101652.44;;;1.52;76.38
69879;BME280;57161;43.136;24.706;2024-01-30T04:52:52;101652.09;;;1.49;75.81
69879;BME280;57161;43.136;24.706;2024-01-30T04:55:17;101636.09;;;1.41;76.19
69879;BME280;57161;43.136;24.706;2024-01-30T04:57:43;101641.63;;;1.41;76.31
69879;BME280;57161;43.136;24.706;2024-01-30T05:00:09;101647.00;;;1.48;76.31
69879;BME280;57161;43.136;24.706;2024-01-30T05:02:34;101667.69;;;1.56;76.44
69879;BME280;57161;43.136;24.706;2024-01-30T05:05:00;101651.34;;;1.45;76.66
69879;BME280;57161;43.136;24.706;2024-01-30T05:07:25;101664.78;;;1.43;76.80
69879;BME280;57161;43.136;24.706;2024-01-30T05:09:51;101666.47;;;1.37;77.29
69879;BME280;57161;43.136;24.706;2024-01-30T05:12:17;101657.72;;;1.42;77.13
69879;BME280;57161;43.136;24.706;2024-01-30T05:14:42;101650.38;;;1.36;77.23
69879;BME280;57161;43.136;24.706;2024-01-30T05:17:08;101669.09;;;1.44;77.07
69879;BME280;57161;43.136;24.706;2024-01-30T05:19:35;101653.38;;;1.22;77.61
69879;BME280;57161;43.136;24.706;2024-01-30T05:22:01;101636.56;;;1.16;77.47
69879;BME280;57161;43.136;24.706;2024-01-30T05:24:26;101650.47;;;1.29;77.34
69879;BME280;57161;43.136;24.706;2024-01-30T05:26:51;101657.78;;;1.39;77.47
69879;BME280;57161;43.136;24.706;2024-01-30T05:29:17;101659.00;;;1.38;77.14
69879;BME280;57161;43.136;24.706;2024-01-30T05:31:42;101668.44;;;1.37;77.22
69879;BME280;57161;43.136;24.706;2024-01-30T05:34:08;101645.34;;;1.31;76.79
69879;BME280;57161;43.136;24.706;2024-01-30T05:36:34;101649.38;;;1.46;76.86
69879;BME280;57161;43.136;24.706;2024-01-30T05:39:00;101666.22;;;1.52;76.96
69879;BME280;57161;43.136;24.706;2024-01-30T05:41:25;101646.41;;;1.37;76.88
69879;BME280;57161;43.136;24.706;2024-01-30T05:43:51;101646.28;;;1.44;76.65
69879;BME280;57161;43.136;24.706;2024-01-30T05:46:16;101646.69;;;1.42;76.15
69879;BME280;57161;43.136;24.706;2024-01-30T05:48:42;101668.84;;;1.59;76.13
69879;BME280;57161;43.136;24.706;2024-01-30T05:51:08;101659.38;;;1.60;75.79
69879;BME280;57161;43.136;24.706;2024-01-30T05:53:34;101662.44;;;1.65;75.35
69879;BME280;57161;43.136;24.706;2024-01-30T05:56:01;101638.75;;;1.48;75.19
69879;BME280;57161;43.136;24.706;2024-01-30T05:58:27;101669.50;;;1.66;75.50
69879;BME280;57161;43.136;24.706;2024-01-30T06:00:54;101676.50;;;1.71;75.38
69879;BME280;57161;43.136;24.706;2024-01-30T06:03:19;101656.91;;;1.65;76.21
69879;BME280;57161;43.136;24.706;2024-01-30T06:05:45;101675.78;;;1.67;75.51
69879;BME280;57161;43.136;24.706;2024-01-30T06:08:10;101644.94;;;1.52;75.45
69879;BME280;57161;43.136;24.706;2024-01-30T06:10:36;101636.88;;;1.41;75.37
69879;BME280;57161;43.136;24.706;2024-01-30T06:13:01;101666.38;;;1.64;75.18
69879;BME280;57161;43.136;24.706;2024-01-30T06:15:27;101631.78;;;1.40;75.02
69879;BME280;57161;43.136;24.706;2024-01-30T06:17:55;101659.50;;;1.53;75.29
69879;BME280;57161;43.136;24.706;2024-01-30T06:20:20;101660.91;;;1.61;74.96
69879;BME280;57161;43.136;24.706;2024-01-30T06:22:45;101664.25;;;1.72;74.58
69879;BME280;57161;43.136;24.706;2024-01-30T06:25:11;101665.13;;;1.69;74.48
69879;BME280;57161;43.136;24.706;2024-01-30T06:27:37;101671.47;;;1.86;74.86
69879;BME280;57161;43.136;24.706;2024-01-30T06:30:04;101639.94;;;1.67;74.12
69879;BME280;57161;43.136;24.706;2024-01-30T06:32:30;101671.41;;;1.89;74.11
69879;BME280;57161;43.136;24.706;2024-01-30T06:35:00;101680.94;;;1.85;74.29
69879;BME280;57161;43.136;24.706;2024-01-30T06:37:25;101641.00;;;1.73;74.51
69879;BME280;57161;43.136;24.706;2024-01-30T06:39:50;101649.97;;;1.77;74.14
69879;BME280;57161;43.136;24.706;2024-01-30T06:42:17;101659.03;;;1.77;74.89
69879;BME280;57161;43.136;24.706;2024-01-30T06:44:42;101661.50;;;1.72;74.82
69879;BME280;57161;43.136;24.706;2024-01-30T06:47:08;101628.84;;;1.50;74.93
69879;BME280;57161;43.136;24.706;2024-01-30T06:49:33;101673.88;;;1.84;74.73
69879;BME280;57161;43.136;24.706;2024-01-30T06:52:00;101659.25;;;1.87;74.38
69879;BME280;57161;43.136;24.706;2024-01-30T06:54:25;101677.13;;;1.98;75.08
69879;BME280;57161;43.136;24.706;2024-01-30T06:56:51;101676.63;;;2.03;74.25
69879;BME280;57161;43.136;24.706;2024-01-30T06:59:17;101675.44;;;2.04;74.23
69879;BME280;57161;43.136;24.706;2024-01-30T07:01:42;101686.72;;;2.10;74.16
69879;BME280;57161;43.136;24.706;2024-01-30T07:04:07;101687.47;;;2.14;74.06
69879;BME280;57161;43.136;24.706;2024-01-30T07:06:33;101689.88;;;2.12;74.00
69879;BME280;57161;43.136;24.706;2024-01-30T07:08:58;101691.75;;;2.15;74.03
69879;BME280;57161;43.136;24.706;2024-01-30T07:11:24;101693.41;;;2.13;74.11
69879;BME280;57161;43.136;24.706;2024-01-30T07:13:53;101692.97;;;2.14;74.25
69879;BME280;57161;43.136;24.706;2024-01-30T07:16:19;101688.59;;;2.17;73.84
69879;BME280;57161;43.136;24.706;2024-01-30T07:18:44;101695.06;;;2.26;73.91
69879;BME280;57161;43.136;24.706;2024-01-30T07:21:10;101696.31;;;2.41;73.72
69879;BME280;57161;43.136;24.706;2024-01-30T07:23:36;101679.22;;;2.30;73.68
69879;BME280;57161;43.136;24.706;2024-01-30T07:26:06;101687.06;;;2.32;73.64
69879;BME280;57161;43.136;24.706;2024-01-30T07:28:32;101687.28;;;2.57;72.80
69879;BME280;57161;43.136;24.706;2024-01-30T07:30:58;101654.31;;;2.34;72.04
69879;BME280;57161;43.136;24.706;2024-01-30T07:33:24;101652.94;;;2.42;72.04
69879;BME280;57161;43.136;24.706;2024-01-30T07:35:49;101641.31;;;2.51;71.14
69879;BME280;57161;43.136;24.706;2024-01-30T07:38:15;101653.25;;;2.64;70.84
69879;BME280;57161;43.136;24.706;2024-01-30T07:40:40;101691.94;;;2.96;70.63
69879;BME280;57161;43.136;24.706;2024-01-30T07:43:06;101663.19;;;2.78;70.47
69879;BME280;57161;43.136;24.706;2024-01-30T07:45:32;101685.34;;;2.90;70.66
69879;BME280;57161;43.136;24.706;2024-01-30T07:47:58;101682.78;;;2.83;70.04
69879;BME280;57161;43.136;24.706;2024-01-30T07:50:25;101695.78;;;2.83;70.56
69879;BME280;57161;43.136;24.706;2024-01-30T07:52:50;101706.94;;;2.95;70.72
69879;BME280;57161;43.136;24.706;2024-01-30T07:55:20;101687.09;;;2.84;70.93
69879;BME280;57161;43.136;24.706;2024-01-30T07:57:47;101699.00;;;2.81;71.17
69879;BME280;57161;43.136;24.706;2024-01-30T08:00:13;101686.41;;;2.80;71.61
69879;BME280;57161;43.136;24.706;2024-01-30T08:02:39;101693.81;;;2.83;71.58
69879;BME280;57161;43.136;24.706;2024-01-30T08:05:04;101682.91;;;2.76;71.80
69879;BME280;57161;43.136;24.706;2024-01-30T08:07:30;101705.41;;;2.94;71.64
69879;BME280;57161;43.136;24.706;2024-01-30T08:09:55;101697.00;;;2.82;71.89
69879;BME280;57161;43.136;24.706;2024-01-30T08:12:21;101694.16;;;2.85;71.74
69879;BME280;57161;43.136;24.706;2024-01-30T08:14:46;101681.31;;;2.79;71.86
69879;BME280;57161;43.136;24.706;2024-01-30T08:17:12;101680.66;;;2.55;73.17
69879;BME280;57161;43.136;24.706;2024-01-30T08:19:37;101697.06;;;2.62;73.59
69879;BME280;57161;43.136;24.706;2024-01-30T08:22:03;101684.09;;;2.59;72.77
69879;BME280;57161;43.136;24.706;2024-01-30T08:24:28;101685.50;;;2.67;72.02
69879;BME280;57161;43.136;24.706;2024-01-30T08:26:54;101684.75;;;2.30;72.95
69879;BME280;57161;43.136;24.706;2024-01-30T08:29:19;101695.00;;;2.30;73.58
69879;BME280;57161;43.136;24.706;2024-01-30T08:31:45;101714.44;;;2.42;73.94
69879;BME280;57161;43.136;24.706;2024-01-30T08:34:11;101719.47;;;2.48;74.15
69879;BME280;57161;43.136;24.706;2024-01-30T08:36:36;101727.44;;;2.62;73.94
69879;BME280;57161;43.136;24.706;2024-01-30T08:39:02;101728.28;;;2.59;73.55
69879;BME280;57161;43.136;24.706;2024-01-30T08:41:28;101658.84;;;2.24;73.16
69879;BME280;57161;43.136;24.706;2024-01-30T08:43:54;101705.16;;;2.53;73.50
69879;BME280;57161;43.136;24.706;2024-01-30T08:46:19;101704.53;;;2.45;73.34
69879;BME280;57161;43.136;24.706;2024-01-30T08:48:46;101692.13;;;2.53;73.36
69879;BME280;57161;43.136;24.706;2024-01-30T08:51:11;101708.91;;;2.62;72.57
69879;BME280;57161;43.136;24.706;2024-01-30T08:53:37;101703.19;;;2.69;72.52
69879;BME280;57161;43.136;24.706;2024-01-30T08:56:03;101690.06;;;2.57;72.60
69879;BME280;57161;43.136;24.706;2024-01-30T08:58:29;101708.28;;;2.71;71.86
69879;BME280;57161;43.136;24.706;2024-01-30T09:00:54;101699.47;;;2.76;71.28
69879;BME280;57161;43.136;24.706;2024-01-30T09:03:20;101710.19;;;2.90;70.84
69879;BME280;57161;43.136;24.706;2024-01-30T09:05:45;101713.16;;;2.99;69.73
69879;BME280;57161;43.136;24.706;2024-01-30T09:08:11;101671.03;;;2.79;68.69
69879;BME280;57161;43.136;24.706;2024-01-30T09:10:36;101679.38;;;2.92;68.48
69879;BME280;57161;43.136;24.706;2024-01-30T09:13:02;101697.13;;;3.11;68.71
69879;BME280;57161;43.136;24.706;2024-01-30T09:15:28;101712.63;;;3.21;68.38
69879;BME280;57161;43.136;24.706;2024-01-30T09:17:54;101695.97;;;3.24;68.45
69879;BME280;57161;43.136;24.706;2024-01-30T09:20:19;101703.47;;;3.40;68.08
69879;BME280;57161;43.136;24.706;2024-01-30T09:22:47;101713.13;;;3.48;67.23
69879;BME280;57161;43.136;24.706;2024-01-30T09:25:13;101713.47;;;3.50;66.73
69879;BME280;57161;43.136;24.706;2024-01-30T09:27:38;101689.63;;;3.40;65.86
69879;BME280;57161;43.136;24.706;2024-01-30T09:30:04;101706.19;;;3.56;65.55
69879;BME280;57161;43.136;24.706;2024-01-30T09:32:30;101718.13;;;3.53;65.75
69879;BME280;57161;43.136;24.706;2024-01-30T09:34:55;101690.84;;;3.39;66.32
69879;BME280;57161;43.136;24.706;2024-01-30T09:37:20;101702.91;;;3.61;65.81
69879;BME280;57161;43.136;24.706;2024-01-30T09:39:46;101705.94;;;3.67;65.21
69879;BME280;57161;43.136;24.706;2024-01-30T09:44:47;101665.31;;;3.64;64.83
69879;BME280;57161;43.136;24.706;2024-01-30T09:47:16;101649.81;;;3.38;64.18
69879;BME280;57161;43.136;24.706;2024-01-30T09:49:43;101702.19;;;3.74;64.63
69879;BME280;57161;43.136;24.706;2024-01-30T09:52:09;101702.00;;;3.81;64.08
69879;BME280;57161;43.136;24.706;2024-01-30T09:54:35;101688.06;;;3.84;63.90
69879;BME280;57161;43.136;24.706;2024-01-30T09:57:01;101670.53;;;3.91;63.12
69879;BME280;57161;43.136;24.706;2024-01-30T09:59:26;101697.34;;;4.07;62.64
69879;BME280;57161;43.136;24.706;2024-01-30T10:01:52;101693.69;;;4.10;62.21
69879;BME280;57161;43.136;24.706;2024-01-30T10:04:18;101676.22;;;4.13;62.05
69879;BME280;57161;43.136;24.706;2024-01-30T10:06:43;101687.09;;;4.33;62.33
69879;BME280;57161;43.136;24.706;2024-01-30T10:09:09;101688.66;;;4.46;62.43
69879;BME280;57161;43.136;24.706;2024-01-30T10:11:35;101664.63;;;4.43;61.74
69879;BME280;57161;43.136;24.706;2024-01-30T10:14:01;101685.13;;;4.59;61.99
69879;BME280;57161;43.136;24.706;2024-01-30T10:16:27;101649.13;;;4.59;60.51
69879;BME280;57161;43.136;24.706;2024-01-30T10:18:53;101683.44;;;4.87;60.54
69879;BME280;57161;43.136;24.706;2024-01-30T10:21:19;101663.06;;;4.55;59.45
69879;BME280;57161;43.136;24.706;2024-01-30T10:23:45;101680.34;;;4.46;59.49
69879;BME280;57161;43.136;24.706;2024-01-30T10:26:10;101666.81;;;4.36;59.21
69879;BME280;57161;43.136;24.706;2024-01-30T10:28:36;101668.16;;;4.44;58.91
69879;BME280;57161;43.136;24.706;2024-01-30T10:31:04;101669.03;;;4.53;59.34
69879;BME280;57161;43.136;24.706;2024-01-30T10:33:30;101667.38;;;4.69;59.70
69879;BME280;57161;43.136;24.706;2024-01-30T10:36:00;101655.66;;;4.90;59.11
69879;BME280;57161;43.136;24.706;2024-01-30T10:38:29;101673.63;;;5.20;58.05
69879;BME280;57161;43.136;24.706;2024-01-30T10:40:59;101664.53;;;5.32;57.49
69879;BME280;57161;43.136;24.706;2024-01-30T10:43:54;101658.63;;;5.43;56.56
69879;BME280;57161;43.136;24.706;2024-01-30T10:46:26;101672.13;;;5.54;56.45
69879;BME280;57161;43.136;24.706;2024-01-30T10:49:05;101656.56;;;5.56;56.00
69879;BME280;57161;43.136;24.706;2024-01-30T10:51:32;101628.63;;;5.51;56.20
69879;BME280;57161;43.136;24.706;2024-01-30T10:53:58;101657.50;;;5.75;55.72
69879;BME280;57161;43.136;24.706;2024-01-30T10:56:25;101646.91;;;5.83;53.81
69879;BME280;57161;43.136;24.706;2024-01-30T10:58:51;101639.94;;;5.78;53.22
69879;BME280;57161;43.136;24.706;2024-01-30T11:01:21;101595.94;;;5.46;52.38
69879;BME280;57161;43.136;24.706;2024-01-30T11:03:50;101638.00;;;5.66;50.69
69879;BME280;57161;43.136;24.706;2024-01-30T11:06:16;101613.88;;;5.54;51.20
69879;BME280;57161;43.136;24.706;2024-01-30T11:08:43;101638.97;;;5.72;50.79
69879;BME280;57161;43.136;24.706;2024-01-30T11:11:09;101590.00;;;5.34;48.98
69879;BME280;57161;43.136;24.706;2024-01-30T11:13:35;101595.47;;;5.47;49.33
69879;BME280;57161;43.136;24.706;2024-01-30T11:16:05;101634.31;;;5.69;49.36
69879;BME280;57161;43.136;24.706;2024-01-30T11:18:31;101603.06;;;5.34;48.97
69879;BME280;57161;43.136;24.706;2024-01-30T11:20:58;101622.72;;;5.61;49.60
69879;BME280;57161;43.136;24.706;2024-01-30T11:23:26;101580.06;;;5.24;48.87
69879;BME280;57161;43.136;24.706;2024-01-30T11:25:52;101564.72;;;5.32;48.86
69879;BME280;57161;43.136;24.706;2024-01-30T11:28:18;101611.03;;;5.66;49.01
69879;BME280;57161;43.136;24.706;2024-01-30T11:30:44;101610.50;;;5.81;49.69
69879;BME280;57161;43.136;24.706;2024-01-30T11:33:14;101619.03;;;5.64;48.99
69879;BME280;57161;43.136;24.706;2024-01-30T11:35:42;101608.34;;;5.54;49.48
69879;BME280;57161;43.136;24.706;2024-01-30T11:38:09;101584.84;;;5.24;49.67
69879;BME280;57161;43.136;24.706;2024-01-30T11:40:37;101603.84;;;5.34;49.88
69879;BME280;57161;43.136;24.706;2024-01-30T11:43:04;101602.75;;;5.32;49.36
69879;BME280;57161;43.136;24.706;2024-01-30T11:45:30;101574.19;;;5.22;49.93
69879;BME280;57161;43.136;24.706;2024-01-30T11:47:56;101602.84;;;5.41;49.52
69879;BME280;57161;43.136;24.706;2024-01-30T11:50:22;101594.06;;;5.42;49.30
69879;BME280;57161;43.136;24.706;2024-01-30T11:52:48;101582.19;;;5.42;49.53
69879;BME280;57161;43.136;24.706;2024-01-30T11:55:14;101569.75;;;5.47;48.76
69879;BME280;57161;43.136;24.706;2024-01-30T11:57:40;101592.38;;;5.45;49.59
69879;BME280;57161;43.136;24.706;2024-01-30T12:00:06;101587.22;;;5.34;49.69
69879;BME280;57161;43.136;24.706;2024-01-30T12:02:38;101594.06;;;5.42;50.01
69879;BME280;57161;43.136;24.706;2024-01-30T12:05:07;101577.94;;;5.28;50.07
69879;BME280;57161;43.136;24.706;2024-01-30T12:07:33;101584.47;;;4.87;51.35
69879;BME280;57161;43.136;24.706;2024-01-30T12:09:59;101543.34;;;4.38;51.48
69879;BME280;57161;43.136;24.706;2024-01-30T12:12:26;101567.16;;;4.61;51.52
69879;BME280;57161;43.136;24.706;2024-01-30T12:14:52;101547.75;;;4.74;51.57
69879;BME280;57161;43.136;24.706;2024-01-30T12:17:31;101564.44;;;5.18;50.57
69879;BME280;57161;43.136;24.706;2024-01-30T12:20:07;101563.53;;;4.86;51.21
69879;BME280;57161;43.136;24.706;2024-01-30T12:22:36;101561.28;;;4.72;51.63
69879;BME280;57161;43.136;24.706;2024-01-30T12:25:03;101552.41;;;4.64;50.92
69879;BME280;57161;43.136;24.706;2024-01-30T12:27:29;101549.84;;;4.70;50.34
69879;BME280;57161;43.136;24.706;2024-01-30T12:29:58;101550.53;;;4.74;50.40
69879;BME280;57161;43.136;24.706;2024-01-30T12:32:24;101551.38;;;4.83;50.51
69879;BME280;57161;43.136;24.706;2024-01-30T12:34:49;101533.97;;;4.83;49.98
69879;BME280;57161;43.136;24.706;2024-01-30T12:37:15;101548.28;;;4.81;50.25
69879;BME280;57161;43.136;24.706;2024-01-30T12:39:45;101543.81;;;4.84;50.43
69879;BME280;57161;43.136;24.706;2024-01-30T12:42:10;101549.06;;;5.04;50.79
69879;BME280;57161;43.136;24.706;2024-01-30T12:44:36;101540.94;;;5.22;49.99
69879;BME280;57161;43.136;24.706;2024-01-30T12:47:05;101542.66;;;5.29;49.60